createdAt,value
2022-12-24T00:04:18.051Z,10.3
2022-12-24T00:14:18.794Z,10.3
2022-12-24T00:24:19.073Z,10.1
2022-12-24T00:34:20.124Z,10
2022-12-24T00:44:20.775Z,10
2022-12-24T00:44:42.706Z,10
2022-12-24T00:54:27.036Z,10.1
2022-12-24T01:04:27.206Z,10.1
2022-12-24T01:14:28.300Z,10.1
2022-12-24T01:24:28.868Z,10.2
2022-12-24T01:34:29.230Z,10.2
2022-12-24T01:54:29.636Z,10.2
2022-12-24T02:04:30.000Z,10.2
2022-12-24T02:14:30.370Z,10.1
2022-12-24T02:24:31.156Z,10.2
2022-12-24T02:34:31.835Z,10.1
2022-12-24T02:44:32.870Z,10.1
2022-12-24T02:54:33.709Z,10
2022-12-24T03:04:34.744Z,10.1
2022-12-24T03:14:35.358Z,10
2022-12-24T03:24:35.537Z,10
2022-12-24T03:34:35.921Z,9.9
2022-12-24T03:44:36.896Z,9.9
2022-12-24T03:54:37.519Z,9.9
2022-12-24T04:04:37.836Z,9.9
2022-12-24T04:14:38.252Z,9.9
2022-12-24T04:34:38.888Z,9.7
2022-12-24T04:44:39.176Z,9.9
2022-12-24T04:54:39.558Z,9.9
2022-12-24T05:04:40.363Z,9.8
2022-12-24T05:14:41.170Z,9.8
2022-12-24T05:24:42.213Z,9.8
2022-12-24T05:44:43.093Z,9.9
2022-12-24T05:54:43.594Z,9.9
2022-12-24T06:04:44.338Z,9.9
2022-12-24T06:14:44.581Z,10
2022-12-24T06:24:44.848Z,10.1
2022-12-24T06:44:46.045Z,10.1
2022-12-24T06:54:46.745Z,10
2022-12-24T07:04:47.644Z,10.1
2022-12-24T07:24:49.560Z,10.2
2022-12-24T07:34:49.959Z,10.1
2022-12-24T07:44:50.879Z,9.9
2022-12-24T07:54:51.027Z,9.9
2022-12-24T08:04:51.119Z,9.9
2022-12-24T08:14:51.637Z,10
2022-12-24T08:24:52.618Z,10
2022-12-24T08:44:53.511Z,10.3
2022-12-24T08:54:54.429Z,10.4
2022-12-24T09:04:54.551Z,10.4
2022-12-24T09:14:58.119Z,10.4
2022-12-24T09:24:55.016Z,10.5
2022-12-24T09:34:55.401Z,10.5
2022-12-24T09:44:55.682Z,10.4
2022-12-24T09:54:56.366Z,10.4
2022-12-24T10:04:57.004Z,10.5
2022-12-24T10:14:57.765Z,10.5
2022-12-24T10:24:57.908Z,10.6
2022-12-24T10:34:58.866Z,10.7
2022-12-24T10:44:59.419Z,10.9
2022-12-24T10:55:00.059Z,11.1
2022-12-24T11:05:00.251Z,11.2
2022-12-24T11:25:01.346Z,11.1
2022-12-24T11:35:02.230Z,11
2022-12-24T11:45:02.654Z,11
2022-12-24T11:55:03.159Z,11
2022-12-24T12:05:04.144Z,10.9
2022-12-24T12:15:04.284Z,11
2022-12-24T12:25:04.891Z,11.2
2022-12-24T12:35:05.635Z,11.1
2022-12-24T12:45:06.181Z,11.1
2022-12-24T12:55:06.892Z,11.3
2022-12-24T13:05:07.819Z,11.6
2022-12-24T13:15:08.087Z,11.5
2022-12-24T13:25:08.473Z,11.4
2022-12-24T13:35:08.841Z,11.3
2022-12-24T13:45:09.507Z,11.1
2022-12-24T13:55:10.224Z,11
2022-12-24T13:59:07.418Z,11
2022-12-24T14:09:05.858Z,11.3
2022-12-24T14:19:06.364Z,11.3
2022-12-24T14:29:07.236Z,11.3
2022-12-24T14:39:07.898Z,10.9
2022-12-24T14:49:08.931Z,10.8
2022-12-24T14:59:09.811Z,10.6
2022-12-24T15:09:10.455Z,10.3
2022-12-24T15:19:11.229Z,10.2
2022-12-24T15:29:12.003Z,10
2022-12-24T15:39:12.845Z,9.7
2022-12-24T15:59:13.894Z,9.2
2022-12-24T16:09:14.832Z,9
2022-12-24T16:19:15.313Z,8.7
2022-12-24T16:29:15.705Z,8.5
2022-12-24T16:39:16.200Z,8.3
2022-12-24T16:49:17.170Z,8
2022-12-24T16:59:17.597Z,7.8
2022-12-24T17:09:18.280Z,7.4
2022-12-24T17:19:19.079Z,7.3
2022-12-24T17:29:19.457Z,7.2
2022-12-24T17:39:25.789Z,7.2
2022-12-24T17:49:20.176Z,7.1
2022-12-24T17:59:21.015Z,6.9
2022-12-24T18:09:22.006Z,6.7
2022-12-24T18:19:22.748Z,6.5
2022-12-24T18:29:22.968Z,6.3
2022-12-24T18:49:23.637Z,5.9
2022-12-24T18:59:24.628Z,5.6
2022-12-24T19:09:24.698Z,5.4
2022-12-24T19:29:26.273Z,5.1
2022-12-24T19:39:31.665Z,4.8
2022-12-24T19:49:27.223Z,4.7
2022-12-24T20:09:28.372Z,4.5
2022-12-24T20:19:29.156Z,4.5
2022-12-24T20:29:29.829Z,4.5
2022-12-24T20:39:30.043Z,4.5
2022-12-24T20:49:30.198Z,4.6
2022-12-24T20:59:30.579Z,4.6
2022-12-24T21:09:30.913Z,4.6
2022-12-24T21:19:31.455Z,4.6
2022-12-24T21:29:31.896Z,4.6
2022-12-24T21:39:33.031Z,4.6
2022-12-24T21:49:33.179Z,4.6
2022-12-24T21:59:34.224Z,4.6
2022-12-24T22:09:34.538Z,4.6
2022-12-24T22:19:35.313Z,4.6
2022-12-24T22:29:35.699Z,4.6
2022-12-24T22:39:36.424Z,4.7
2022-12-24T22:49:36.797Z,4.6
2022-12-24T22:59:37.027Z,4.6
2022-12-24T23:09:37.500Z,4.4
2022-12-24T23:19:37.675Z,4.3
2022-12-24T23:29:38.439Z,4.3
2022-12-24T23:39:39.319Z,4.2
2022-12-24T23:49:39.630Z,4.1
2022-12-24T23:59:40.204Z,4
